Time;durP1;ratioP1;P1;durP2;ratioP2;P2;SDS_P1;SDS_P2;PMS_P1;PMS_P2;Temp;Humidity;BMP_temperature;BMP_pressure;BME280_temperature;BME280_humidity;BME280_pressure;Samples;Min_cycle;Max_cycle;Signal;HPM_P1;HPM_P2
2022/12/16 00:01:57;;;;;;;52.58;32.58;;;-5.90;1.00;;;;;;5118396;27;20235;-78
2022/12/16 00:04:25;;;;;;;48.55;30.95;;;-5.90;1.00;;;;;;5091918;27;20224;-77
2022/12/16 00:06:55;;;;;;;51.10;32.83;;;-5.90;1.00;;;;;;5098779;28;20251;-78
2022/12/16 00:09:37;;;;;;;51.83;33.60;;;-5.90;1.00;;;;;;5098143;27;20339;-77
2022/12/16 00:12:07;;;;;;;56.92;33.20;;;-5.90;1.00;;;;;;5098342;27;20295;-77
2022/12/16 00:14:35;;;;;;;48.40;31.92;;;-5.90;1.00;;;;;;5088765;27;20220;-76
2022/12/16 00:17:06;;;;;;;52.72;31.63;;;-5.90;1.00;;;;;;5100383;28;20239;-77
2022/12/16 00:19:35;;;;;;;51.97;31.90;;;-6.00;1.00;;;;;;5089082;28;20233;-79
2022/12/16 00:22:05;;;;;;;49.30;32.30;;;-6.00;1.00;;;;;;5102568;28;20266;-77
2022/12/16 00:24:36;;;;;;;49.95;32.25;;;-6.10;1.00;;;;;;5095181;28;20239;-78
2022/12/16 00:27:07;;;;;;;50.22;31.98;;;-6.10;1.00;;;;;;5104340;28;20235;-77
2022/12/16 00:29:37;;;;;;;46.65;32.10;;;-6.20;1.00;;;;;;5098431;28;20235;-77
2022/12/16 00:32:07;;;;;;;42.53;30.35;;;-6.30;1.00;;;;;;5104151;27;20266;-77
2022/12/16 00:34:35;;;;;;;45.85;30.77;;;-6.40;1.00;;;;;;5093891;27;20215;-79
2022/12/16 00:37:05;;;;;;;47.42;31.20;;;-6.40;1.00;;;;;;5094913;27;20266;-76
2022/12/16 00:39:35;;;;;;;47.78;31.02;;;-6.40;1.00;;;;;;5108398;27;20750;-78
2022/12/16 00:42:20;;;;;;;50.90;31.55;;;-6.50;1.00;;;;;;5102466;27;20231;-77
2022/12/16 00:44:48;;;;;;;48.35;31.40;;;-6.50;1.00;;;;;;5103110;27;20247;-76
2022/12/16 00:47:17;;;;;;;53.78;31.60;;;-6.50;1.00;;;;;;5100829;28;20259;-77
2022/12/16 00:49:46;;;;;;;50.17;32.28;;;-6.50;1.00;;;;;;5094499;28;20232;-78
2022/12/16 00:52:16;;;;;;;47.35;32.47;;;-6.50;1.00;;;;;;5102744;28;20270;-76
2022/12/16 00:54:47;;;;;;;49.20;33.33;;;-6.60;1.00;;;;;;5088097;27;20229;-77
2022/12/16 00:57:40;;;;;;;47.20;32.65;;;-6.50;1.00;;;;;;5105640;27;20242;-79
2022/12/16 01:00:15;;;;;;;52.05;30.55;;;-6.50;1.00;;;;;;5117277;27;20308;-76
2022/12/16 01:02:47;;;;;;;43.88;30.73;;;-6.50;1.00;;;;;;5112847;27;20255;-78
2022/12/16 01:05:32;;;;;;;52.22;31.73;;;-6.50;1.00;;;;;;5116438;27;20226;-77
2022/12/16 01:08:05;;;;;;;52.75;33.03;;;-6.50;1.00;;;;;;5115871;27;20235;-78
2022/12/16 01:10:35;;;;;;;51.65;31.63;;;-6.50;1.00;;;;;;5119474;27;21359;-77
2022/12/16 01:13:07;;;;;;;46.65;32.47;;;-6.50;1.00;;;;;;5112621;27;20297;-78
2022/12/16 01:15:38;;;;;;;50.35;33.03;;;-6.50;1.00;;;;;;5115785;27;20221;-78
2022/12/16 01:18:08;;;;;;;46.90;31.27;;;-6.40;1.00;;;;;;5121945;27;21039;-77
2022/12/16 01:20:38;;;;;;;53.35;31.50;;;-6.40;1.00;;;;;;5107430;27;20263;-78
2022/12/16 01:23:08;;;;;;;48.70;32.10;;;-6.30;1.00;;;;;;5110633;27;20227;-77
2022/12/16 01:25:35;;;;;;;47.22;31.42;;;-6.40;1.00;;;;;;5108737;27;20228;-78
2022/12/16 01:28:03;;;;;;;48.53;32.95;;;-6.30;1.00;;;;;;5110482;27;20292;-77
2022/12/16 01:30:32;;;;;;;51.75;32.85;;;-6.40;1.00;;;;;;5113167;27;20236;-77
2022/12/16 01:32:59;;;;;;;47.95;31.05;;;-6.40;1.00;;;;;;5110339;27;20246;-76
2022/12/16 01:35:26;;;;;;;50.10;33.08;;;-6.40;1.00;;;;;;5108410;27;20927;-76
2022/12/16 01:37:53;;;;;;;52.22;34.30;;;-6.40;1.00;;;;;;5108617;27;20304;-77
2022/12/16 01:40:23;;;;;;;52.00;31.38;;;-6.40;1.00;;;;;;5107591;27;20267;-77
2022/12/16 01:42:52;;;;;;;48.13;33.22;;;-6.40;1.00;;;;;;5109809;27;20611;-78
2022/12/16 01:45:35;;;;;;;44.85;30.05;;;-6.40;1.00;;;;;;5106823;27;20246;-78
2022/12/16 01:48:11;;;;;;;49.35;30.58;;;-6.50;1.00;;;;;;5111693;27;20338;-78
2022/12/16 01:50:39;;;;;;;48.97;32.33;;;-6.50;1.00;;;;;;5113042;27;20301;-78
2022/12/16 01:53:06;;;;;;;47.97;32.17;;;-6.40;1.00;;;;;;5114314;27;20435;-78
2022/12/16 01:55:38;;;;;;;46.70;31.52;;;-6.50;1.00;;;;;;5112308;27;20234;-76
2022/12/16 01:58:09;;;;;;;49.25;32.22;;;-6.50;1.00;;;;;;5121808;27;20284;-79
2022/12/16 02:00:38;;;;;;;49.90;31.58;;;-6.40;1.00;;;;;;5113106;27;20312;-78
2022/12/16 02:03:09;;;;;;;50.28;31.13;;;-6.40;1.00;;;;;;5109972;27;21102;-77
2022/12/16 02:05:41;;;;;;;50.28;31.95;;;-6.40;1.00;;;;;;5111526;27;20232;-77
2022/12/16 02:08:12;;;;;;;43.15;29.65;;;-6.50;1.00;;;;;;5108849;27;20802;-77
2022/12/16 02:10:53;;;;;;;48.75;32.20;;;-6.50;1.00;;;;;;5111777;27;21086;-76
2022/12/16 02:13:27;;;;;;;46.15;30.15;;;-6.50;1.00;;;;;;5111340;27;23271;-77
2022/12/16 02:16:06;;;;;;;48.90;31.00;;;-6.50;1.00;;;;;;5110817;27;20240;-77
2022/12/16 02:18:42;;;;;;;48.22;30.75;;;-6.50;1.00;;;;;;5111866;27;20235;-77
2022/12/16 02:21:21;;;;;;;50.88;33.45;;;-6.50;1.00;;;;;;5117289;27;20731;-77
2022/12/16 02:24:28;;;;;;;50.08;30.90;;;-6.50;1.00;;;;;;5108874;27;20241;-77
2022/12/16 02:27:52;;;;;;;47.75;30.40;;;-6.50;1.00;;;;;;5113889;27;20231;-79
2022/12/16 02:30:45;;;;;;;45.58;28.85;;;-6.40;1.00;;;;;;5018734;28;20261;-77
2022/12/16 02:33:45;;;;;;;41.40;28.75;;;-6.50;1.00;;;;;;5025011;28;20260;-77
2022/12/16 02:36:21;;;;;;;47.80;30.52;;;-6.50;1.00;;;;;;5094176;27;20343;-77
2022/12/16 02:39:00;;;;;;;54.90;30.42;;;-6.50;1.00;;;;;;5116020;27;20256;-76
2022/12/16 02:41:47;;;;;;;43.45;28.48;;;-6.50;1.00;;;;;;5112347;27;20242;-76
2022/12/16 02:44:18;;;;;;;49.38;30.40;;;-6.60;1.00;;;;;;5109252;27;20245;-76
2022/12/16 02:46:55;;;;;;;49.95;30.35;;;-6.50;1.00;;;;;;5112103;27;20229;-77
2022/12/16 02:49:56;;;;;;;47.88;30.85;;;-6.60;1.00;;;;;;5112430;27;20215;-77
2022/12/16 02:52:28;;;;;;;44.53;29.40;;;-6.50;1.00;;;;;;5026443;28;20242;-77
2022/12/16 02:54:59;;;;;;;45.20;29.38;;;-6.50;1.00;;;;;;5029525;28;20326;-77
2022/12/16 02:57:50;;;;;;;48.60;29.55;;;-6.40;1.00;;;;;;5073490;27;20269;-76
2022/12/16 03:00:20;;;;;;;42.22;28.17;;;-6.50;1.00;;;;;;5114492;27;20237;-77
2022/12/16 03:02:55;;;;;;;45.33;30.48;;;-6.60;1.00;;;;;;5110538;27;20340;-77
2022/12/16 03:05:26;;;;;;;43.92;30.02;;;-6.60;1.00;;;;;;5111791;27;20318;-76
2022/12/16 03:07:57;;;;;;;45.75;28.75;;;-6.60;1.00;;;;;;5113298;27;20239;-76
2022/12/16 03:10:29;;;;;;;45.58;29.75;;;-6.60;1.00;;;;;;5111053;27;20338;-77
2022/12/16 03:12:59;;;;;;;42.60;28.65;;;-6.70;1.00;;;;;;5112257;27;20239;-77
2022/12/16 03:15:35;;;;;;;43.85;28.63;;;-6.70;1.00;;;;;;5114782;27;20763;-77
2022/12/16 03:18:07;;;;;;;44.72;29.42;;;-6.70;1.00;;;;;;5115612;27;20232;-76
2022/12/16 03:20:42;;;;;;;43.85;30.10;;;-6.70;1.00;;;;;;5115498;27;20236;-76
2022/12/16 03:23:16;;;;;;;40.60;29.75;;;-6.70;1.00;;;;;;5112029;27;20706;-76
2022/12/16 03:25:47;;;;;;;43.67;28.65;;;-6.60;1.00;;;;;;5115368;27;20234;-77
2022/12/16 03:28:28;;;;;;;44.67;29.05;;;-6.60;1.00;;;;;;5113094;27;20306;-77
2022/12/16 03:31:03;;;;;;;42.90;31.23;;;-6.60;1.00;;;;;;5114501;27;20744;-76
2022/12/16 03:33:37;;;;;;;42.38;28.45;;;-6.50;1.00;;;;;;5112113;27;20295;-76
2022/12/16 03:36:10;;;;;;;50.58;30.83;;;-6.50;1.00;;;;;;5115096;27;20250;-77
2022/12/16 03:38:41;;;;;;;42.28;29.75;;;-6.50;1.00;;;;;;5115152;27;20283;-77
2022/12/16 03:41:09;;;;;;;47.47;31.13;;;-6.50;1.00;;;;;;5116430;27;20983;-76
2022/12/16 03:43:37;;;;;;;49.22;30.10;;;-6.50;1.00;;;;;;5109507;27;20251;-78
2022/12/16 03:46:08;;;;;;;44.17;30.02;;;-6.50;1.00;;;;;;5112935;27;20722;-78
2022/12/16 03:48:45;;;;;;;45.55;28.77;;;-6.40;1.00;;;;;;5114891;27;20231;-77
2022/12/16 03:51:12;;;;;;;48.58;28.95;;;-6.40;1.00;;;;;;5113577;27;20351;-78
2022/12/16 03:53:39;;;;;;;43.42;28.48;;;-6.40;1.00;;;;;;5110688;27;20262;-78
2022/12/16 03:56:09;;;;;;;50.72;30.67;;;-6.50;1.00;;;;;;5119613;27;20227;-77
2022/12/16 03:58:41;;;;;;;46.25;28.35;;;-6.50;1.00;;;;;;5128791;27;20234;-77
2022/12/16 04:01:10;;;;;;;47.83;29.73;;;-6.40;1.00;;;;;;5129225;27;20334;-77
2022/12/16 04:03:38;;;;;;;48.38;29.25;;;-6.40;1.00;;;;;;5129030;27;20274;-76
2022/12/16 04:06:06;;;;;;;45.03;30.02;;;-6.40;1.00;;;;;;5126733;27;20277;-76
2022/12/16 04:08:33;;;;;;;44.45;31.35;;;-6.40;1.00;;;;;;5131684;27;20330;-77
2022/12/16 04:25:02;;;;;;;48.78;30.00;;;-6.50;1.00;;;;;;5133382;27;20235;-78
2022/12/16 04:27:29;;;;;;;45.70;29.20;;;-6.50;1.00;;;;;;5129019;27;20235;-77
